createdAt,value
2017-11-10T00:00:33.939Z,8.31
2017-11-10T00:03:01.566Z,8.29
2017-11-10T00:05:29.267Z,8.28
2017-11-10T00:07:56.898Z,8.25
2017-11-10T00:10:24.672Z,8.25
2017-11-10T00:12:52.286Z,8.20
2017-11-10T00:15:19.959Z,8.20
2017-11-10T00:17:47.579Z,8.22
2017-11-10T00:20:15.198Z,8.22
2017-11-10T00:22:42.827Z,8.23
2017-11-10T00:25:10.455Z,8.30
2017-11-10T00:27:38.087Z,8.35
2017-11-10T00:30:05.703Z,8.38
2017-11-10T00:32:33.361Z,8.38
2017-11-10T00:35:00.991Z,8.40
2017-11-10T00:37:28.631Z,8.39
2017-11-10T00:39:56.294Z,8.34
2017-11-10T00:42:23.950Z,8.33
2017-11-10T00:44:51.574Z,8.33
2017-11-10T00:47:19.214Z,8.31
2017-11-10T00:49:46.831Z,8.30
2017-11-10T00:52:14.536Z,8.29
2017-11-10T00:54:42.226Z,8.33
2017-11-10T00:57:09.839Z,8.37
2017-11-10T00:59:37.499Z,8.38
2017-11-10T01:02:05.110Z,8.43
2017-11-10T01:04:32.750Z,8.40
2017-11-10T01:07:00.384Z,8.41
2017-11-10T01:09:28.021Z,8.36
2017-11-10T01:11:55.639Z,8.32
2017-11-10T01:14:23.282Z,8.33
2017-11-10T01:16:50.903Z,8.31
2017-11-10T01:19:18.560Z,8.30
2017-11-10T01:21:46.157Z,8.29
2017-11-10T01:24:13.802Z,8.31
2017-11-10T01:26:41.426Z,8.25
2017-11-10T01:29:09.067Z,8.32
2017-11-10T01:31:36.681Z,8.37
2017-11-10T01:34:04.330Z,8.37
2017-11-10T01:36:31.943Z,8.41
2017-11-10T01:38:59.589Z,8.38
2017-11-10T01:41:27.218Z,8.33
2017-11-10T01:43:54.879Z,8.34
2017-11-10T01:46:22.514Z,8.36
2017-11-10T01:48:52.103Z,8.35
2017-11-10T01:51:19.716Z,8.35
2017-11-10T01:53:47.335Z,8.35
2017-11-10T01:56:14.986Z,8.34
2017-11-10T01:58:42.614Z,8.34
2017-11-10T02:01:10.266Z,8.39
2017-11-10T02:03:37.891Z,8.41
2017-11-10T02:06:05.545Z,8.44
2017-11-10T02:08:33.194Z,8.47
2017-11-10T02:11:00.835Z,8.49
2017-11-10T02:13:28.451Z,8.42
2017-11-10T02:15:56.085Z,8.36
2017-11-10T02:18:23.724Z,8.39
2017-11-10T02:20:51.367Z,8.40
2017-11-10T02:23:18.997Z,8.42
2017-11-10T02:25:46.651Z,8.42
2017-11-10T02:28:14.254Z,8.41
2017-11-10T02:30:41.882Z,8.36
2017-11-10T02:33:09.487Z,8.38
2017-11-10T02:35:37.140Z,8.40
2017-11-10T02:38:04.751Z,8.45
2017-11-10T02:40:32.367Z,8.48
2017-11-10T02:42:59.999Z,8.47
2017-11-10T02:45:27.612Z,8.44
2017-11-10T02:47:55.256Z,8.42
2017-11-10T02:50:22.878Z,8.41
2017-11-10T02:52:50.558Z,8.42
2017-11-10T02:55:18.205Z,8.43
2017-11-10T02:57:45.822Z,8.41
2017-11-10T03:00:13.477Z,8.42
2017-11-10T03:02:41.242Z,8.47
2017-11-10T03:05:08.874Z,8.47
2017-11-10T03:07:36.604Z,8.48
2017-11-10T03:10:04.286Z,8.50
2017-11-10T03:12:31.899Z,8.53
2017-11-10T03:14:59.557Z,8.56
2017-11-10T03:17:27.203Z,8.60
2017-11-10T03:19:54.851Z,8.64
2017-11-10T03:22:22.479Z,8.63
2017-11-10T03:24:50.134Z,8.63
2017-11-10T03:27:17.761Z,8.64
2017-11-10T03:29:45.415Z,8.64
2017-11-10T03:32:13.044Z,8.68
2017-11-10T03:34:40.694Z,8.72
2017-11-10T03:37:08.315Z,8.74
2017-11-10T03:39:35.979Z,8.73
2017-11-10T03:42:03.592Z,8.74
2017-11-10T03:44:31.367Z,8.77
2017-11-10T03:46:58.975Z,8.83
2017-11-10T03:49:26.573Z,8.87
2017-11-10T03:51:54.207Z,8.90
2017-11-10T03:54:21.855Z,8.97
2017-11-10T03:56:49.506Z,9.02
2017-11-10T03:59:17.130Z,9.05
2017-11-10T04:01:44.758Z,9.11
2017-11-10T04:04:12.365Z,9.12
2017-11-10T04:06:40.011Z,9.14
2017-11-10T04:09:07.624Z,9.14
2017-11-10T04:11:35.254Z,9.16
2017-11-10T04:14:02.864Z,9.19
2017-11-10T04:16:30.514Z,9.18
2017-11-10T04:18:58.125Z,9.20
2017-11-10T04:21:25.775Z,9.19
2017-11-10T04:23:53.398Z,9.11
2017-11-10T04:26:21.030Z,9.11
2017-11-10T04:28:48.630Z,9.11
2017-11-10T04:31:16.314Z,9.12
2017-11-10T04:33:43.933Z,9.12
2017-11-10T04:36:11.573Z,9.10
2017-11-10T04:38:39.164Z,9.11
2017-11-10T04:41:06.794Z,9.13
2017-11-10T04:43:34.470Z,9.15
2017-11-10T04:46:02.155Z,9.16
2017-11-10T04:48:29.766Z,9.20
2017-11-10T04:50:57.514Z,9.20
2017-11-10T04:53:25.095Z,9.19
2017-11-10T04:55:52.694Z,9.17
2017-11-10T04:58:20.420Z,9.18
2017-11-10T05:00:48.082Z,9.19
2017-11-10T05:03:15.705Z,9.17
2017-11-10T05:05:43.318Z,9.15
2017-11-10T05:08:10.970Z,9.15
2017-11-10T05:10:38.559Z,9.15
2017-11-10T05:13:06.237Z,9.14
2017-11-10T05:15:33.833Z,9.12
2017-11-10T05:18:01.476Z,9.15
2017-11-10T05:20:29.070Z,9.21
2017-11-10T05:22:56.837Z,9.21
2017-11-10T05:25:24.446Z,9.24
2017-11-10T05:27:52.089Z,9.24
2017-11-10T05:30:19.747Z,9.25
2017-11-10T05:32:47.393Z,9.25
2017-11-10T05:35:15.019Z,9.27
2017-11-10T05:37:42.675Z,9.29
2017-11-10T05:40:10.302Z,9.31
2017-11-10T05:42:37.935Z,9.33
2017-11-10T05:45:05.575Z,9.34
2017-11-10T05:47:33.249Z,9.35
2017-11-10T05:50:00.860Z,9.37
2017-11-10T05:52:28.510Z,9.39
2017-11-10T05:54:56.224Z,9.40
2017-11-10T05:57:23.865Z,9.41
2017-11-10T05:59:51.515Z,9.40
2017-11-10T06:02:19.131Z,9.43
2017-11-10T06:04:46.721Z,9.42
2017-11-10T06:07:14.355Z,9.41
2017-11-10T06:09:42.044Z,9.45
2017-11-10T06:12:09.683Z,9.48
2017-11-10T06:14:37.334Z,9.49
2017-11-10T06:17:04.971Z,9.53
2017-11-10T06:19:32.583Z,9.55
2017-11-10T06:22:00.219Z,9.56
2017-11-10T06:24:27.810Z,9.55
2017-11-10T06:26:55.525Z,9.56
2017-11-10T06:29:23.138Z,9.56
2017-11-10T06:31:50.774Z,9.55
2017-11-10T06:34:18.379Z,9.51
2017-11-10T06:36:46.004Z,9.49
2017-11-10T06:39:13.619Z,9.49
2017-11-10T06:41:41.284Z,9.49
2017-11-10T06:44:08.902Z,9.48
2017-11-10T06:46:36.556Z,9.50
2017-11-10T06:49:04.186Z,9.51
2017-11-10T06:51:31.783Z,9.53
2017-11-10T06:53:59.429Z,9.53
2017-11-10T06:56:27.023Z,9.53
2017-11-10T06:58:54.652Z,9.51
2017-11-10T07:01:22.252Z,9.51
2017-11-10T07:03:49.907Z,9.49
2017-11-10T07:06:17.507Z,9.50
2017-11-10T07:08:45.142Z,9.49
2017-11-10T07:11:12.767Z,9.47
2017-11-10T07:13:40.403Z,9.45
2017-11-10T07:16:08.012Z,9.44
2017-11-10T07:18:35.648Z,9.39
2017-11-10T07:21:03.414Z,9.40
2017-11-10T07:23:31.049Z,9.38
2017-11-10T07:25:58.654Z,9.37
2017-11-10T07:28:26.310Z,9.37
2017-11-10T07:30:53.907Z,9.34
2017-11-10T07:33:21.560Z,9.32
2017-11-10T07:35:49.164Z,9.30
2017-11-10T07:38:16.798Z,9.31
2017-11-10T07:40:44.471Z,9.31
2017-11-10T07:43:12.111Z,9.31
2017-11-10T07:45:42.623Z,9.32
2017-11-10T07:48:10.275Z,9.35
2017-11-10T07:50:37.904Z,9.34
2017-11-10T07:53:05.556Z,9.40
2017-11-10T07:55:33.224Z,9.40
2017-11-10T07:58:00.909Z,9.40
2017-11-10T08:00:28.725Z,9.39
2017-11-10T08:02:56.396Z,9.38
2017-11-10T08:05:24.099Z,9.36
2017-11-10T08:07:51.779Z,9.37
2017-11-10T08:10:19.440Z,9.38
2017-11-10T08:12:47.301Z,9.36
2017-11-10T08:15:14.980Z,9.38
2017-11-10T08:17:42.651Z,9.30
2017-11-10T08:20:10.411Z,9.33
2017-11-10T08:22:38.100Z,9.33
2017-11-10T08:25:05.829Z,9.35
2017-11-10T08:27:33.606Z,9.35
2017-11-10T08:30:01.258Z,9.33
2017-11-10T08:32:28.887Z,9.35
2017-11-10T08:34:56.534Z,9.34
2017-11-10T08:37:24.257Z,9.37
2017-11-10T08:39:51.969Z,9.42
2017-11-10T08:42:19.583Z,9.43
2017-11-10T08:44:47.236Z,9.45
2017-11-10T08:47:15.002Z,9.47
2017-11-10T08:49:42.615Z,9.49
2017-11-10T08:52:10.251Z,9.51
2017-11-10T08:54:37.911Z,9.52
2017-11-10T08:57:05.551Z,9.54
2017-11-10T08:59:33.164Z,9.57
2017-11-10T09:02:00.797Z,9.57
2017-11-10T09:04:28.442Z,9.57
2017-11-10T09:06:56.037Z,9.60
2017-11-10T09:09:23.686Z,9.65
2017-11-10T09:11:51.311Z,9.70
2017-11-10T09:14:18.956Z,9.73
2017-11-10T09:16:46.636Z,9.81
2017-11-10T09:19:14.324Z,9.85
2017-11-10T09:21:41.940Z,9.89
2017-11-10T09:24:09.647Z,9.91
2017-11-10T09:26:37.271Z,9.94
2017-11-10T09:32:26.753Z,10.05
2017-11-10T09:34:59.892Z,10.12
2017-11-10T09:37:29.940Z,10.19
2017-11-10T09:43:13.762Z,10.31
2017-11-10T09:45:58.146Z,10.30
2017-11-10T09:48:31.381Z,10.35
2017-11-10T09:51:04.709Z,10.37
2017-11-10T09:53:32.484Z,10.42
2017-11-10T09:56:14.954Z,10.50
2017-11-10T10:01:58.274Z,10.56
2017-11-10T10:04:31.554Z,10.58
2017-11-10T10:07:04.869Z,10.57
2017-11-10T10:09:38.198Z,10.59
2017-11-10T10:15:28.092Z,10.55
2017-11-10T10:21:13.204Z,10.63
2017-11-10T10:23:40.967Z,10.65
2017-11-10T10:26:08.635Z,10.65
2017-11-10T10:28:36.256Z,10.68
2017-11-10T10:31:03.967Z,10.74
2017-11-10T10:33:31.720Z,10.77
2017-11-10T10:35:59.457Z,10.81
2017-11-10T10:38:27.076Z,10.80
2017-11-10T10:40:54.678Z,10.80
2017-11-10T10:43:22.372Z,10.82
2017-11-10T10:45:50.010Z,10.82
2017-11-10T10:48:17.879Z,10.81
2017-11-10T10:50:45.554Z,10.82
2017-11-10T10:53:13.229Z,10.81
2017-11-10T10:55:41.040Z,10.83
2017-11-10T10:58:08.711Z,10.86
2017-11-10T11:00:36.328Z,10.89
2017-11-10T11:03:04.013Z,10.96
2017-11-10T11:05:31.704Z,11.01
2017-11-10T11:07:59.363Z,11.02
2017-11-10T11:10:27.000Z,11.05
2017-11-10T11:12:54.842Z,11.08
2017-11-10T11:15:22.473Z,11.14
2017-11-10T11:17:50.143Z,11.16
2017-11-10T11:20:17.902Z,11.24
2017-11-10T11:22:45.688Z,11.25
2017-11-10T11:25:13.318Z,11.26
2017-11-10T11:27:40.951Z,11.26
2017-11-10T11:30:08.584Z,11.28
2017-11-10T11:32:36.357Z,11.31
2017-11-10T11:35:04.000Z,11.31
2017-11-10T11:37:31.784Z,11.31
2017-11-10T11:39:59.423Z,11.31
2017-11-10T11:42:27.104Z,11.26
2017-11-10T11:44:54.760Z,11.27
2017-11-10T11:47:22.430Z,11.24
2017-11-10T11:49:50.083Z,11.27
2017-11-10T11:52:17.759Z,11.23
2017-11-10T11:54:45.364Z,11.23
2017-11-10T11:57:13.067Z,11.18
2017-11-10T11:59:40.726Z,11.13
2017-11-10T12:02:08.645Z,11.10
2017-11-10T12:04:36.310Z,11.06
2017-11-10T12:07:03.991Z,10.98
2017-11-10T12:09:31.679Z,10.93
2017-11-10T12:11:59.555Z,10.88
2017-11-10T12:14:27.359Z,10.83
2017-11-10T12:16:55.011Z,10.78
2017-11-10T12:19:22.626Z,10.70
2017-11-10T12:21:50.270Z,10.69
2017-11-10T12:24:17.886Z,10.64
2017-11-10T12:26:45.543Z,10.59
2017-11-10T12:29:13.142Z,10.60
2017-11-10T12:31:40.796Z,10.56
2017-11-10T12:34:08.396Z,10.56
2017-11-10T12:36:36.140Z,10.53
2017-11-10T12:39:03.755Z,10.56
2017-11-10T12:41:31.439Z,10.54
2017-11-10T12:43:59.090Z,10.53
2017-11-10T12:46:26.739Z,10.50
2017-11-10T12:48:54.338Z,10.47
2017-11-10T12:51:21.955Z,10.50
2017-11-10T12:53:49.631Z,10.52
2017-11-10T12:56:17.475Z,10.49
2017-11-10T12:58:45.098Z,10.50
2017-11-10T13:01:12.733Z,10.54
2017-11-10T13:03:40.375Z,10.62
2017-11-10T13:06:08.064Z,10.65
2017-11-10T13:08:35.680Z,10.65
2017-11-10T13:11:03.346Z,10.70
2017-11-10T13:13:30.963Z,10.81
2017-11-10T13:15:58.627Z,11.02
2017-11-10T13:18:26.210Z,11.27
2017-11-10T13:20:53.939Z,11.31
2017-11-10T13:23:21.600Z,11.20
2017-11-10T13:25:49.265Z,11.17
2017-11-10T13:28:16.906Z,11.15
2017-11-10T13:30:44.568Z,11.08
2017-11-10T13:33:12.192Z,11.05
2017-11-10T13:35:39.842Z,11.03
2017-11-10T13:38:07.480Z,11.10
2017-11-10T13:40:35.115Z,11.12
2017-11-10T13:43:02.754Z,11.17
2017-11-10T13:45:30.383Z,11.25
2017-11-10T13:47:58.039Z,11.47
2017-11-10T13:50:25.719Z,11.52
2017-11-10T13:52:53.367Z,11.64
2017-11-10T13:55:21.028Z,11.74
2017-11-10T13:57:48.652Z,11.83
2017-11-10T14:00:16.284Z,11.95
2017-11-10T14:02:43.974Z,12.20
2017-11-10T14:05:11.629Z,12.39
2017-11-10T14:07:39.243Z,12.47
2017-11-10T14:10:06.871Z,12.60
2017-11-10T14:12:34.550Z,12.56
2017-11-10T14:15:02.167Z,12.36
2017-11-10T14:17:29.903Z,12.04
2017-11-10T14:19:57.534Z,11.94
2017-11-10T14:22:25.221Z,11.79
2017-11-10T14:24:52.874Z,11.79
2017-11-10T14:27:20.591Z,11.79
2017-11-10T14:29:48.211Z,11.80
2017-11-10T14:32:16.021Z,11.90
2017-11-10T14:34:43.658Z,11.92
2017-11-10T14:37:11.332Z,12.04
2017-11-10T14:39:38.987Z,11.95
2017-11-10T14:42:06.649Z,11.81
2017-11-10T14:44:34.310Z,11.80
2017-11-10T14:47:01.972Z,11.79
2017-11-10T14:49:29.618Z,11.89
2017-11-10T14:51:57.308Z,11.95
2017-11-10T14:54:24.979Z,11.96
2017-11-10T14:56:52.666Z,11.89
2017-11-10T14:59:20.349Z,11.76
2017-11-10T15:01:48.017Z,11.68
2017-11-10T15:04:15.756Z,11.58
2017-11-10T15:06:43.371Z,11.53
2017-11-10T15:09:11.035Z,11.56
2017-11-10T15:11:38.646Z,11.53
2017-11-10T15:14:06.311Z,11.48
2017-11-10T15:16:33.978Z,11.48
2017-11-10T15:19:01.643Z,11.45
2017-11-10T15:21:29.370Z,11.40
2017-11-10T15:23:57.031Z,11.34
2017-11-10T15:26:24.651Z,11.32
2017-11-10T15:28:52.303Z,11.29
2017-11-10T15:31:19.911Z,11.21
2017-11-10T15:33:47.550Z,11.16
2017-11-10T15:36:15.173Z,11.12
2017-11-10T15:38:42.823Z,11.07
2017-11-10T15:41:10.450Z,11.06
2017-11-10T15:43:38.111Z,11.01
2017-11-10T15:46:05.723Z,11.02
2017-11-10T15:48:33.373Z,11.04
2017-11-10T15:51:00.983Z,11.03
2017-11-10T15:53:28.861Z,11.00
2017-11-10T15:55:56.491Z,10.97
2017-11-10T15:58:24.099Z,10.92
2017-11-10T16:00:51.742Z,10.90
2017-11-10T16:03:19.354Z,10.88
2017-11-10T16:05:47.004Z,10.87
2017-11-10T16:08:14.623Z,10.85
2017-11-10T16:10:42.285Z,10.85
2017-11-10T16:13:09.911Z,10.80
2017-11-10T16:15:37.684Z,10.75
2017-11-10T16:18:05.304Z,10.67
2017-11-10T16:20:32.949Z,10.63
2017-11-10T16:23:00.602Z,10.59
2017-11-10T16:25:28.303Z,10.56
2017-11-10T16:27:55.917Z,10.51
2017-11-10T16:30:23.574Z,10.50
2017-11-10T16:32:51.188Z,10.47
2017-11-10T16:35:18.841Z,10.42
2017-11-10T16:37:46.461Z,10.37
2017-11-10T16:40:14.095Z,10.33
2017-11-10T16:42:41.718Z,10.27
2017-11-10T16:45:09.401Z,10.25
2017-11-10T16:47:37.100Z,10.25
2017-11-10T16:50:04.873Z,10.24
2017-11-10T16:52:32.572Z,10.20
2017-11-10T16:55:00.227Z,10.18
2017-11-10T16:57:27.866Z,10.15
2017-11-10T16:59:55.559Z,10.14
2017-11-10T17:02:23.218Z,10.13
2017-11-10T17:04:50.927Z,10.11
2017-11-10T17:07:18.540Z,10.06
2017-11-10T17:09:46.257Z,10.05
2017-11-10T17:12:13.886Z,10.06
2017-11-10T17:14:41.559Z,10.09
2017-11-10T17:17:09.183Z,10.11
2017-11-10T17:19:37.600Z,10.09
2017-11-10T17:22:05.257Z,10.08
2017-11-10T17:24:32.933Z,10.06
2017-11-10T17:27:00.638Z,10.04
2017-11-10T17:29:28.270Z,9.99
2017-11-10T17:31:55.935Z,9.96
2017-11-10T17:34:23.540Z,9.92
2017-11-10T17:36:51.184Z,9.87
2017-11-10T17:39:18.816Z,9.86
2017-11-10T17:41:46.455Z,9.85
2017-11-10T17:44:14.081Z,9.85
2017-11-10T17:46:41.735Z,9.82
2017-11-10T17:49:09.346Z,9.83
2017-11-10T17:51:37.006Z,9.77
2017-11-10T17:54:04.660Z,9.79
2017-11-10T17:56:32.302Z,9.78
2017-11-10T17:58:59.920Z,9.74
2017-11-10T18:01:27.591Z,9.72
2017-11-10T18:03:55.268Z,9.73
2017-11-10T18:06:22.912Z,9.73
2017-11-10T18:08:50.515Z,9.68
2017-11-10T18:11:18.160Z,9.70
2017-11-10T18:13:45.771Z,9.60
2017-11-10T18:16:13.423Z,9.57
2017-11-10T18:18:41.035Z,9.52
2017-11-10T18:21:08.686Z,9.50
2017-11-10T18:23:36.322Z,9.48
2017-11-10T18:26:04.100Z,9.46
2017-11-10T18:28:31.731Z,9.47
2017-11-10T18:30:59.388Z,9.42
2017-11-10T18:33:26.998Z,9.38
2017-11-10T18:35:54.648Z,9.36
2017-11-10T18:38:22.277Z,9.32
2017-11-10T18:40:49.918Z,9.30
2017-11-10T18:43:17.557Z,9.27
2017-11-10T18:45:45.195Z,9.19
2017-11-10T19:01:46.973Z,9.00
2017-11-10T19:04:14.606Z,8.98
2017-11-10T19:06:42.329Z,8.95
2017-11-10T19:09:09.974Z,8.91
2017-11-10T19:11:37.630Z,8.94
2017-11-10T19:14:05.305Z,8.87
2017-11-10T19:16:32.943Z,8.86
2017-11-10T19:19:00.567Z,8.84
2017-11-10T19:21:28.229Z,8.81
2017-11-10T19:23:55.846Z,8.79
2017-11-10T19:26:23.506Z,8.78
2017-11-10T19:28:51.117Z,8.73
2017-11-10T19:31:18.750Z,8.68
2017-11-10T19:33:46.363Z,8.70
2017-11-10T19:36:14.031Z,8.71
2017-11-10T19:38:41.700Z,8.67
2017-11-10T19:41:09.341Z,8.65
2017-11-10T19:43:37.020Z,8.62
2017-11-10T19:46:04.747Z,8.63
2017-11-10T19:48:32.353Z,8.59
2017-11-10T19:50:59.995Z,8.59
2017-11-10T19:53:27.636Z,8.57
2017-11-10T19:55:55.320Z,8.53
2017-11-10T19:58:22.958Z,8.51
2017-11-10T20:00:50.640Z,8.52
2017-11-10T20:03:18.284Z,8.52
2017-11-10T20:05:45.984Z,8.51
2017-11-10T20:08:13.648Z,8.51
2017-11-10T20:10:41.327Z,8.48
2017-11-10T20:13:09.035Z,8.50
2017-11-10T20:15:36.692Z,8.52
2017-11-10T20:18:04.320Z,8.49
2017-11-10T20:20:32.011Z,8.47
2017-11-10T20:22:59.640Z,8.44
2017-11-10T20:25:27.355Z,8.43
2017-11-10T20:27:54.982Z,8.43
2017-11-10T20:30:22.715Z,8.40
2017-11-10T20:32:50.344Z,8.40
2017-11-10T20:35:18.018Z,8.37
2017-11-10T20:37:45.640Z,8.35
2017-11-10T20:40:13.330Z,8.37
2017-11-10T20:42:40.945Z,8.31
2017-11-10T20:45:08.683Z,8.29
2017-11-10T20:47:36.344Z,8.34
2017-11-10T20:50:04.050Z,8.34
2017-11-10T20:52:31.728Z,8.36
2017-11-10T20:54:59.359Z,8.41
2017-11-10T20:57:27.016Z,8.46
2017-11-10T20:59:54.635Z,8.42
2017-11-10T21:02:22.299Z,8.38
2017-11-10T21:04:49.913Z,8.33
2017-11-10T21:07:17.582Z,8.30
2017-11-10T21:09:45.279Z,8.27
2017-11-10T21:12:12.928Z,8.25
2017-11-10T21:14:40.726Z,8.23
2017-11-10T21:17:08.379Z,8.23
2017-11-10T21:19:36.483Z,8.27
2017-11-10T21:22:04.265Z,8.30
2017-11-10T21:24:31.894Z,8.29
2017-11-10T21:26:59.582Z,8.20
2017-11-10T21:29:27.196Z,8.19
2017-11-10T21:31:54.876Z,8.21
2017-11-10T21:34:22.495Z,8.18
2017-11-10T21:36:50.149Z,8.15
2017-11-10T21:39:17.819Z,8.15
2017-11-10T21:41:45.486Z,8.10
2017-11-10T21:44:13.209Z,8.04
2017-11-10T21:46:40.855Z,8.00
2017-11-10T21:49:08.476Z,7.98
2017-11-10T21:51:36.170Z,7.93
2017-11-10T21:54:03.816Z,7.93
2017-11-10T21:56:31.466Z,7.87
2017-11-10T21:58:59.096Z,7.89
2017-11-10T22:01:26.747Z,7.82
2017-11-10T22:03:54.382Z,7.82
2017-11-10T22:06:22.027Z,7.83
2017-11-10T22:08:49.671Z,7.83
2017-11-10T22:11:17.322Z,7.81
2017-11-10T22:13:44.954Z,7.84
2017-11-10T22:16:12.602Z,7.87
2017-11-10T22:18:40.234Z,7.92
2017-11-10T22:21:07.907Z,7.88
2017-11-10T22:23:35.553Z,7.88
2017-11-10T22:26:03.169Z,7.91
2017-11-10T22:28:30.854Z,7.94
2017-11-10T22:30:58.467Z,7.93
2017-11-10T22:33:26.111Z,7.95
2017-11-10T22:35:53.741Z,7.94
2017-11-10T22:38:21.398Z,7.93
2017-11-10T22:40:49.033Z,7.89
2017-11-10T22:43:16.631Z,7.85
2017-11-10T22:45:44.272Z,7.84
2017-11-10T22:48:11.882Z,7.83
2017-11-10T22:50:39.532Z,7.76
2017-11-10T22:53:07.143Z,7.73
2017-11-10T22:55:34.790Z,7.72
2017-11-10T22:58:02.407Z,7.71
2017-11-10T23:00:30.056Z,7.65
2017-11-10T23:02:57.665Z,7.61
2017-11-10T23:05:25.320Z,7.60
2017-11-10T23:07:52.944Z,7.57
2017-11-10T23:10:20.578Z,7.60
2017-11-10T23:12:48.222Z,7.59
2017-11-10T23:15:15.876Z,7.56
2017-11-10T23:17:43.496Z,7.56
2017-11-10T23:20:11.146Z,7.58
2017-11-10T23:22:38.763Z,7.57
2017-11-10T23:25:06.419Z,7.58
2017-11-10T23:27:34.086Z,7.50
2017-11-10T23:30:01.756Z,7.50
2017-11-10T23:32:29.405Z,7.50
2017-11-10T23:34:57.143Z,7.45
2017-11-10T23:37:24.756Z,7.46
2017-11-10T23:39:52.424Z,7.44
2017-11-10T23:42:20.028Z,7.39
2017-11-10T23:44:47.656Z,7.37
2017-11-10T23:47:15.290Z,7.38
2017-11-10T23:49:42.923Z,7.30
2017-11-10T23:52:10.525Z,7.30
2017-11-10T23:54:38.137Z,7.28
2017-11-10T23:57:05.792Z,7.21
2017-11-10T23:59:33.399Z,7.18
